createdAt,value
2022-08-05T00:01:27.801Z,98543.75
2022-08-05T00:04:14.965Z,98526.53
2022-08-05T00:07:01.343Z,98539.19
2022-08-05T00:10:08.034Z,98552.09
2022-08-05T00:12:56.860Z,98534.44
2022-08-05T00:15:55.410Z,98560.41
2022-08-05T00:18:48.184Z,98568.00
2022-08-05T00:21:35.952Z,98563.47
2022-08-05T00:24:24.789Z,98556.56
2022-08-05T00:27:17.363Z,98573.84
2022-08-05T00:30:05.212Z,98579.22
2022-08-05T00:32:58.006Z,98596.59
2022-08-05T00:36:14.966Z,98608.19
2022-08-05T00:38:51.565Z,98610.56
2022-08-05T00:41:51.701Z,98586.44
2022-08-05T00:44:42.931Z,98583.19
2022-08-05T00:47:53.388Z,98590.47
2022-08-05T00:50:36.918Z,98574.91
2022-08-05T00:54:00.618Z,98618.19
2022-08-05T00:56:30.139Z,98602.00
2022-08-05T00:59:16.882Z,98601.03
2022-08-05T01:02:03.965Z,98609.84
2022-08-05T01:04:50.678Z,98608.25
2022-08-05T01:07:37.438Z,98579.84
2022-08-05T01:10:52.384Z,98598.34
2022-08-05T01:13:57.779Z,98620.31
2022-08-05T01:16:49.114Z,98615.88
2022-08-05T01:20:01.764Z,98603.22
2022-08-05T01:26:44.383Z,98602.97
2022-08-05T01:29:40.414Z,98646.38
2022-08-05T01:32:34.837Z,98588.75
2022-08-05T01:35:51.153Z,98645.16
2022-08-05T01:38:36.179Z,98625.84
2022-08-05T01:41:25.729Z,98607.50
2022-08-05T01:44:13.967Z,98625.44
2022-08-05T01:47:02.571Z,98631.44
2022-08-05T01:50:01.924Z,98633.72
2022-08-05T01:52:52.765Z,98612.00
2022-08-05T01:55:43.659Z,98647.72
2022-08-05T01:58:40.804Z,98614.38
2022-08-05T02:01:39.705Z,98634.13
2022-08-05T02:04:29.972Z,98656.34
2022-08-05T02:07:22.447Z,98666.06
2022-08-05T02:10:11.248Z,98644.47
2022-08-05T02:13:15.747Z,98653.41
2022-08-05T02:16:07.433Z,98658.88
2022-08-05T02:19:17.594Z,98636.19
2022-08-05T02:22:27.454Z,98653.16
2022-08-05T02:25:19.494Z,98634.22
2022-08-05T02:28:10.689Z,98658.16
2022-08-05T02:31:02.282Z,98643.50
2022-08-05T02:33:57.300Z,98620.25
2022-08-05T02:36:50.863Z,98643.38
2022-08-05T02:39:41.585Z,98662.94
2022-08-05T02:42:36.306Z,98676.75
2022-08-05T02:45:25.307Z,98668.31
2022-08-05T02:48:13.254Z,98656.72
2022-08-05T02:51:04.072Z,98697.31
2022-08-05T02:53:54.834Z,98689.50
2022-08-05T02:56:46.036Z,98692.09
2022-08-05T02:59:34.577Z,98696.25
2022-08-05T03:02:39.252Z,98698.28
2022-08-05T03:06:54.784Z,98663.16
2022-08-05T03:08:32.731Z,98681.59
2022-08-05T03:11:56.942Z,98690.66
2022-08-05T03:14:32.029Z,98694.84
2022-08-05T03:17:20.331Z,98654.59
2022-08-05T03:20:10.061Z,98672.97
2022-08-05T03:22:58.049Z,98680.44
2022-08-05T03:26:04.683Z,98689.28
2022-08-05T03:28:50.835Z,98698.38
2022-08-05T03:31:57.335Z,98666.13
2022-08-05T03:34:50.795Z,98678.19
2022-08-05T03:37:46.281Z,98663.84
2022-08-05T03:40:33.474Z,98643.03
2022-08-05T03:44:09.637Z,98677.34
2022-08-05T03:46:32.566Z,98627.53
2022-08-05T03:49:19.239Z,98666.13
2022-08-05T03:52:38.007Z,98630.72
2022-08-05T03:56:05.239Z,98635.06
2022-08-05T03:58:44.748Z,98666.94
2022-08-05T04:01:33.138Z,98681.78
2022-08-05T04:04:21.514Z,98686.44
2022-08-05T04:07:10.034Z,98667.56
2022-08-05T04:09:57.073Z,98684.75
2022-08-05T04:12:48.457Z,98737.81
2022-08-05T04:15:36.107Z,98754.88
2022-08-05T04:18:26.775Z,98761.69
2022-08-05T04:21:13.335Z,98743.28
2022-08-05T04:24:22.725Z,98763.88
2022-08-05T04:27:09.657Z,98718.78
2022-08-05T04:29:56.043Z,98758.75
2022-08-05T04:32:42.378Z,98774.53
2022-08-05T04:36:10.830Z,98810.75
2022-08-05T04:38:40.090Z,98806.03
2022-08-05T04:41:36.714Z,98823.38
2022-08-05T04:44:30.017Z,98823.28
2022-08-05T04:47:18.718Z,98826.63
2022-08-05T04:50:11.270Z,98832.53
2022-08-05T04:52:58.114Z,98817.31
2022-08-05T04:56:33.408Z,98863.28
2022-08-05T04:58:52.055Z,98911.91
2022-08-05T05:02:35.356Z,98910.88
2022-08-05T05:04:49.775Z,98921.19
2022-08-05T05:07:38.005Z,98918.50
2022-08-05T05:10:37.673Z,98942.34
2022-08-05T05:13:24.350Z,98934.22
2022-08-05T05:16:10.931Z,98922.72
2022-08-05T05:19:18.563Z,98939.78
2022-08-05T05:22:24.411Z,98921.72
2022-08-05T05:25:16.504Z,98930.56
2022-08-05T05:28:03.704Z,98930.16
2022-08-05T05:30:50.208Z,98940.16
2022-08-05T05:33:58.687Z,98947.44
2022-08-05T05:36:44.121Z,98932.19
2022-08-05T05:39:36.058Z,98920.69
2022-08-05T05:42:22.531Z,98944.91
2022-08-05T05:45:11.058Z,98937.81
2022-08-05T05:48:06.575Z,98955.44
2022-08-05T05:50:54.634Z,98954.22
2022-08-05T05:53:54.414Z,98957.06
2022-08-05T05:56:45.813Z,98956.06
2022-08-05T05:59:33.877Z,98915.38
2022-08-05T06:02:32.575Z,98961.97
2022-08-05T06:05:23.838Z,98970.56
2022-08-05T06:08:10.701Z,98947.09
2022-08-05T06:10:57.491Z,98926.13
2022-08-05T06:13:53.627Z,98917.94
2022-08-05T06:16:40.700Z,98915.69
2022-08-05T06:19:34.419Z,98923.44
2022-08-05T06:22:27.582Z,98922.94
2022-08-05T06:25:24.994Z,98888.53
2022-08-05T06:28:21.704Z,98904.22
2022-08-05T06:31:11.245Z,98947.38
2022-08-05T06:34:06.001Z,98936.69
2022-08-05T06:36:58.124Z,98941.97
2022-08-05T06:39:45.165Z,98968.25
2022-08-05T06:42:31.925Z,98954.06
2022-08-05T06:45:20.633Z,98929.31
2022-08-05T06:48:44.178Z,98965.13
2022-08-05T06:51:26.660Z,98978.03
2022-08-05T06:54:18.106Z,98955.88
2022-08-05T06:57:58.247Z,98956.09
2022-08-05T07:00:12.526Z,98960.22
2022-08-05T07:02:59.022Z,98964.59
2022-08-05T07:05:46.346Z,98983.63
2022-08-05T07:08:33.210Z,98978.81
2022-08-05T07:11:22.122Z,98989.00
2022-08-05T07:14:32.295Z,98982.56
2022-08-05T07:17:59.792Z,98989.47
2022-08-05T07:20:33.518Z,99004.72
2022-08-05T07:23:26.262Z,99007.44
2022-08-05T07:26:20.949Z,98984.09
2022-08-05T07:29:09.953Z,99004.69
2022-08-05T07:31:56.712Z,99022.25
2022-08-05T07:34:43.214Z,99013.44
2022-08-05T07:37:36.022Z,99017.91
2022-08-05T07:40:32.195Z,99027.75
2022-08-05T07:43:20.795Z,99022.66
2022-08-05T07:46:18.185Z,99014.16
2022-08-05T07:49:11.751Z,98987.94
2022-08-05T07:51:58.371Z,99001.31
2022-08-05T07:54:49.052Z,99007.41
2022-08-05T07:57:55.310Z,99020.25
2022-08-05T08:00:43.715Z,99020.25
2022-08-05T08:03:44.311Z,99014.94
2022-08-05T08:06:32.586Z,99003.06
2022-08-05T08:09:19.773Z,98999.53
2022-08-05T08:12:37.518Z,98970.34
2022-08-05T08:15:15.623Z,99014.69
2022-08-05T08:18:05.936Z,99009.19
2022-08-05T08:21:02.264Z,98972.09
2022-08-05T08:24:03.356Z,99012.28
2022-08-05T08:26:52.423Z,99004.63
2022-08-05T08:30:03.508Z,98983.44
2022-08-05T08:32:45.488Z,98977.09
2022-08-05T08:35:35.203Z,98954.53
2022-08-05T08:38:35.705Z,98957.13
2022-08-05T08:41:50.907Z,98945.81
2022-08-05T08:45:23.609Z,98939.88
2022-08-05T08:48:06.357Z,98952.34
2022-08-05T08:51:22.390Z,98939.69
2022-08-05T08:53:58.567Z,98958.53
2022-08-05T08:56:47.621Z,98944.38
2022-08-05T08:59:36.311Z,98940.31
2022-08-05T09:02:26.651Z,98931.84
2022-08-05T09:05:17.580Z,98892.25
2022-08-05T09:08:05.213Z,98905.91
2022-08-05T09:10:51.990Z,98911.16
2022-08-05T09:14:09.195Z,98924.75
2022-08-05T09:16:48.800Z,98911.59
2022-08-05T09:20:01.342Z,98921.84
2022-08-05T09:23:18.625Z,98916.44
2022-08-05T09:26:21.111Z,98918.16
2022-08-05T09:29:09.136Z,98898.91
2022-08-05T09:32:46.131Z,98880.91
2022-08-05T09:35:26.363Z,98901.97
2022-08-05T09:38:18.644Z,98895.56
2022-08-05T09:41:16.047Z,98909.47
2022-08-05T09:44:03.574Z,98905.34
2022-08-05T09:47:10.234Z,98889.34
2022-08-05T09:50:01.082Z,98879.38
2022-08-05T09:52:57.631Z,98870.19
2022-08-05T09:55:58.168Z,98906.34
2022-08-05T09:59:04.218Z,98888.66
2022-08-05T10:01:58.308Z,98878.19
2022-08-05T10:04:45.152Z,98883.75
2022-08-05T10:08:37.008Z,98908.84
2022-08-05T10:10:54.570Z,98879.66
2022-08-05T10:13:47.494Z,98905.69
2022-08-05T10:16:37.774Z,98907.72
2022-08-05T10:20:02.927Z,98877.81
2022-08-05T10:22:37.867Z,98878.91
2022-08-05T10:25:25.944Z,98883.13
2022-08-05T10:28:19.621Z,98902.97
2022-08-05T10:32:53.760Z,98892.16
2022-08-05T10:34:25.610Z,98899.25
2022-08-05T10:37:12.954Z,98905.28
2022-08-05T10:40:17.559Z,98904.69
2022-08-05T10:43:48.817Z,98890.75
2022-08-05T10:46:44.897Z,98890.13
2022-08-05T10:49:33.320Z,98891.81
2022-08-05T10:52:49.542Z,98895.78
2022-08-05T10:56:14.602Z,98882.03
2022-08-05T10:59:12.402Z,98872.34
2022-08-05T11:02:34.887Z,98867.63
2022-08-05T11:05:21.299Z,98898.25
2022-08-05T11:08:33.777Z,98898.44
2022-08-05T11:11:52.202Z,98878.16
2022-08-05T11:17:59.892Z,98910.38
2022-08-05T11:20:51.313Z,98875.19
2022-08-05T11:24:05.259Z,98906.44
2022-08-05T11:27:29.576Z,98898.00
2022-08-05T11:30:58.529Z,98889.03
2022-08-05T11:33:56.963Z,98894.66
2022-08-05T11:36:52.952Z,98896.66
2022-08-05T11:40:00.741Z,98899.00
2022-08-05T11:42:50.124Z,98879.16
2022-08-05T11:46:16.045Z,98890.47
2022-08-05T11:48:54.825Z,98887.09
2022-08-05T11:51:49.387Z,98869.03
2022-08-05T11:54:38.047Z,98866.66
2022-08-05T11:58:08.314Z,98857.78
2022-08-05T12:00:38.983Z,98859.19
2022-08-05T12:03:31.499Z,98850.59
2022-08-05T12:06:31.965Z,98859.44
2022-08-05T12:09:23.533Z,98855.22
2022-08-05T12:12:30.118Z,98854.22
2022-08-05T12:15:38.327Z,98879.41
2022-08-05T12:18:38.858Z,98846.34
2022-08-05T12:21:29.822Z,98857.44
2022-08-05T12:24:21.254Z,98855.94
2022-08-05T12:27:21.487Z,98855.63
2022-08-05T12:30:15.430Z,98853.69
2022-08-05T12:33:01.826Z,98857.19
2022-08-05T12:35:56.082Z,98856.94
2022-08-05T12:38:43.324Z,98835.22
2022-08-05T12:41:34.388Z,98860.97
2022-08-05T12:44:33.416Z,98856.88
2022-08-05T12:47:30.720Z,98843.72
2022-08-05T12:50:19.786Z,98854.38
2022-08-05T12:53:06.322Z,98853.00
2022-08-05T12:55:54.388Z,98834.41
2022-08-05T12:58:52.162Z,98841.41
2022-08-05T13:01:59.858Z,98848.31
2022-08-05T13:04:54.809Z,98828.47
2022-08-05T13:07:59.861Z,98850.13
2022-08-05T13:10:50.579Z,98857.34
2022-08-05T13:14:06.134Z,98839.13
2022-08-05T13:16:56.960Z,98868.91
2022-08-05T13:20:08.675Z,98858.03
2022-08-05T13:22:56.361Z,98853.50
2022-08-05T13:25:51.855Z,98862.56
2022-08-05T13:28:46.487Z,98867.38
2022-08-05T13:32:03.354Z,98843.28
2022-08-05T13:34:40.892Z,98846.47
2022-08-05T13:37:34.747Z,98844.25
2022-08-05T13:40:36.936Z,98864.22
2022-08-05T13:43:44.130Z,98857.19
2022-08-05T13:46:50.721Z,98839.44
2022-08-05T13:49:45.277Z,98856.91
2022-08-05T13:52:35.275Z,98856.06
2022-08-05T13:55:41.619Z,98847.06
2022-08-05T13:58:31.005Z,98862.41
2022-08-05T14:01:17.810Z,98861.16
2022-08-05T14:04:26.418Z,98840.03
2022-08-05T14:07:25.560Z,98811.84
2022-08-05T14:10:30.651Z,98853.47
2022-08-05T14:13:18.096Z,98838.13
2022-08-05T14:16:11.182Z,98826.16
2022-08-05T14:18:58.182Z,98808.75
2022-08-05T14:22:08.983Z,98846.78
2022-08-05T14:24:57.272Z,98829.88
2022-08-05T14:27:47.430Z,98844.72
2022-08-05T14:30:33.812Z,98794.41
2022-08-05T14:33:24.113Z,98851.47
2022-08-05T14:36:10.758Z,98848.16
2022-08-05T14:38:57.009Z,98852.09
2022-08-05T14:42:02.330Z,98843.13
2022-08-05T14:44:50.752Z,98881.25
2022-08-05T14:48:05.042Z,98860.25
2022-08-05T14:50:44.261Z,98871.53
2022-08-05T14:53:30.722Z,98874.00
2022-08-05T14:56:22.571Z,98894.38
2022-08-05T14:59:09.446Z,98881.16
2022-08-05T15:01:56.333Z,98881.97
2022-08-05T15:04:43.768Z,98891.53
2022-08-05T15:08:11.518Z,98871.44
2022-08-05T15:10:37.849Z,98877.16
2022-08-05T15:13:44.830Z,98874.09
2022-08-05T15:16:32.164Z,98883.53
2022-08-05T15:19:23.741Z,98886.03
2022-08-05T15:22:10.494Z,98903.44
2022-08-05T15:24:59.036Z,98894.84
2022-08-05T15:27:52.486Z,98897.53
2022-08-05T15:30:41.897Z,98909.31
2022-08-05T15:34:04.283Z,98912.06
2022-08-05T15:36:36.565Z,98920.88
2022-08-05T15:41:01.900Z,98937.53
2022-08-05T15:42:55.690Z,98929.06
2022-08-05T15:45:38.417Z,98894.25
2022-08-05T15:48:25.238Z,98902.97
2022-08-05T15:51:11.806Z,98896.44
2022-08-05T15:53:58.223Z,98945.84
2022-08-05T15:56:48.470Z,98937.53
2022-08-05T15:59:35.572Z,98942.41
2022-08-05T16:02:25.409Z,98904.75
2022-08-05T16:05:15.097Z,98924.84
2022-08-05T16:08:01.785Z,98916.81
2022-08-05T16:10:48.066Z,98935.16
2022-08-05T16:13:35.085Z,98941.03
2022-08-05T16:16:25.530Z,98934.03
2022-08-05T16:19:12.028Z,98960.16
2022-08-05T16:22:06.951Z,98961.75
2022-08-05T16:24:57.097Z,98947.94
2022-08-05T16:28:00.745Z,98965.13
2022-08-05T16:30:50.321Z,98948.22
2022-08-05T16:33:41.532Z,98967.63
2022-08-05T16:36:28.366Z,98936.31
2022-08-05T16:39:15.019Z,98958.97
2022-08-05T16:42:13.815Z,98971.47
2022-08-05T16:46:05.267Z,98989.91
2022-08-05T16:48:25.438Z,98940.59
2022-08-05T16:51:13.086Z,98983.59
2022-08-05T16:54:04.146Z,98981.06
2022-08-05T16:56:56.034Z,98968.88
2022-08-05T17:00:00.302Z,98965.69
2022-08-05T17:02:50.279Z,98985.13
2022-08-05T17:05:37.850Z,98983.44
2022-08-05T17:08:35.986Z,98986.34
2022-08-05T17:11:31.172Z,98975.41
2022-08-05T17:14:37.343Z,98985.16
2022-08-05T17:17:41.978Z,98986.03
2022-08-05T17:20:29.424Z,98972.06
2022-08-05T17:24:02.969Z,98979.84
2022-08-05T17:26:22.219Z,98974.75
2022-08-05T17:29:10.394Z,98985.94
2022-08-05T17:31:58.756Z,98996.66
2022-08-05T17:34:48.065Z,99025.13
2022-08-05T17:37:40.254Z,99009.50
2022-08-05T17:40:28.760Z,99025.19
2022-08-05T17:43:17.754Z,98983.31
2022-08-05T17:46:24.119Z,99001.34
2022-08-05T17:49:10.700Z,99001.97
2022-08-05T17:51:57.279Z,99031.13
2022-08-05T17:54:43.443Z,99051.25
2022-08-05T17:57:29.734Z,99070.66
2022-08-05T18:00:18.607Z,99037.13
2022-08-05T18:03:05.111Z,99019.09
2022-08-05T18:05:54.746Z,99045.19
2022-08-05T18:08:52.730Z,99079.00
2022-08-05T18:11:39.032Z,99055.56
2022-08-05T18:14:25.382Z,99102.13
2022-08-05T18:18:00.709Z,99069.00
2022-08-05T18:20:18.198Z,99088.50
2022-08-05T18:23:09.146Z,99106.00
2022-08-05T18:25:59.654Z,99058.63
2022-08-05T18:28:46.541Z,99101.25
2022-08-05T18:31:35.516Z,99104.00
2022-08-05T18:34:22.071Z,99092.28
2022-08-05T18:37:12.486Z,99091.28
2022-08-05T18:41:51.077Z,99130.44
2022-08-05T18:43:06.016Z,99122.22
2022-08-05T18:45:56.134Z,99128.59
2022-08-05T18:48:42.993Z,99128.50
2022-08-05T18:52:03.976Z,99174.84
2022-08-05T18:54:54.473Z,99142.53
2022-08-05T18:57:49.870Z,99161.38
2022-08-05T19:00:39.778Z,99153.03
2022-08-05T19:03:54.999Z,99186.31
2022-08-05T19:06:44.667Z,99165.44
2022-08-05T19:09:40.021Z,99204.69
2022-08-05T19:12:28.293Z,99201.34
2022-08-05T19:15:57.818Z,99172.75
2022-08-05T19:18:25.985Z,99197.13
2022-08-05T19:21:13.823Z,99208.53
2022-08-05T19:24:06.102Z,99206.84
2022-08-05T19:26:55.834Z,99238.13
2022-08-05T19:29:43.746Z,99260.41
2022-08-05T19:32:30.771Z,99219.84
2022-08-05T19:35:17.202Z,99246.19
2022-08-05T19:38:09.408Z,99260.81
2022-08-05T19:40:55.901Z,99228.56
2022-08-05T19:44:05.506Z,99253.41
2022-08-05T19:46:50.097Z,99228.06
2022-08-05T19:49:36.862Z,99254.84
2022-08-05T19:52:30.981Z,99256.00
2022-08-05T19:56:14.733Z,99263.25
2022-08-05T19:58:29.343Z,99285.78
2022-08-05T20:01:18.786Z,99294.19
2022-08-05T20:04:14.605Z,99248.50
2022-08-05T20:07:02.472Z,99272.13
2022-08-05T20:09:55.021Z,99286.69
2022-08-05T20:12:48.156Z,99275.34
2022-08-05T20:15:52.134Z,99282.84
2022-08-05T20:18:41.984Z,99291.41
2022-08-05T20:21:31.878Z,99309.28
2022-08-05T20:24:19.645Z,99299.88
2022-08-05T20:27:11.652Z,99273.56
2022-08-05T20:29:58.988Z,99335.59
2022-08-05T20:32:45.646Z,99298.66
2022-08-05T20:35:32.055Z,99328.75
2022-08-05T20:38:29.520Z,99340.69
2022-08-05T20:41:23.949Z,99313.34
2022-08-05T20:44:17.628Z,99314.38
2022-08-05T20:47:06.574Z,99321.06
2022-08-05T20:49:54.076Z,99353.81
2022-08-05T20:52:43.769Z,99348.22
2022-08-05T20:55:55.225Z,99330.03
2022-08-05T20:58:39.352Z,99333.59
2022-08-05T21:01:37.248Z,99354.34
2022-08-05T21:04:26.885Z,99330.84
2022-08-05T21:07:13.955Z,99359.34
2022-08-05T21:10:00.714Z,99335.31
2022-08-05T21:12:58.341Z,99360.63
2022-08-05T21:15:55.313Z,99349.19
2022-08-05T21:18:44.991Z,99346.03
2022-08-05T21:21:39.502Z,99368.34
2022-08-05T21:24:30.758Z,99377.66
2022-08-05T21:27:17.140Z,99351.09
2022-08-05T21:30:04.526Z,99333.00
2022-08-05T21:32:51.102Z,99387.88
2022-08-05T21:35:43.849Z,99407.22
2022-08-05T21:38:43.930Z,99384.41
2022-08-05T21:41:34.301Z,99387.75
2022-08-05T21:44:26.944Z,99398.38
2022-08-05T21:47:17.639Z,99415.03
2022-08-05T21:50:20.606Z,99383.94
2022-08-05T21:53:17.722Z,99429.59
2022-08-05T21:56:16.438Z,99398.56
2022-08-05T21:59:07.675Z,99415.97
2022-08-05T22:01:54.801Z,99402.44
2022-08-05T22:04:41.165Z,99429.84
2022-08-05T22:07:40.159Z,99422.47
2022-08-05T22:10:34.117Z,99424.13
2022-08-05T22:14:18.276Z,99423.50
2022-08-05T22:16:50.681Z,99432.38
2022-08-05T22:20:00.578Z,99473.03
2022-08-05T22:23:01.243Z,99449.56
2022-08-05T22:26:10.712Z,99460.75
2022-08-05T22:28:58.172Z,99467.31
2022-08-05T22:31:45.204Z,99480.03
2022-08-05T22:34:35.019Z,99470.72
2022-08-05T22:37:22.793Z,99482.84
2022-08-05T22:40:30.611Z,99477.28
2022-08-05T22:43:37.051Z,99507.66
2022-08-05T22:46:25.784Z,99488.66
2022-08-05T22:50:18.288Z,99523.03
2022-08-05T22:52:30.392Z,99498.31
2022-08-05T22:55:21.168Z,99528.81
2022-08-05T22:58:11.789Z,99519.94
2022-08-05T23:01:01.173Z,99499.41
2022-08-05T23:03:58.125Z,99524.59
2022-08-05T23:06:46.140Z,99532.28
2022-08-05T23:09:57.333Z,99523.75
2022-08-05T23:12:43.055Z,99522.06
2022-08-05T23:15:35.422Z,99482.22
2022-08-05T23:18:22.955Z,99530.19
2022-08-05T23:21:10.090Z,99524.03
2022-08-05T23:23:56.892Z,99526.72
2022-08-05T23:26:44.144Z,99543.31
2022-08-05T23:29:34.666Z,99520.88
2022-08-05T23:32:23.248Z,99506.91
2022-08-05T23:35:09.937Z,99534.47
2022-08-05T23:37:56.398Z,99494.28
2022-08-05T23:40:50.227Z,99517.53
2022-08-05T23:44:05.207Z,99559.13
2022-08-05T23:46:43.710Z,99541.94
2022-08-05T23:49:35.787Z,99534.19
2022-08-05T23:52:30.512Z,99565.88
2022-08-05T23:55:18.886Z,99564.94
2022-08-05T23:58:05.289Z,99548.63
